sensor_id;sensor_type;location;lat;lon;timestamp;temperature;humidity
76785;SHT30;66893;44.316;0.092;2024-02-14T00:02:07;17.41;54.18
76785;SHT30;66893;44.316;0.092;2024-02-14T00:04:33;17.40;54.20
76785;SHT30;66893;44.316;0.092;2024-02-14T00:06:59;17.40;54.17
76785;SHT30;66893;44.316;0.092;2024-02-14T00:09:25;17.37;54.13
76785;SHT30;66893;44.316;0.092;2024-02-14T00:11:50;17.35;54.10
76785;SHT30;66893;44.316;0.092;2024-02-14T00:14:16;17.35;54.10
76785;SHT30;66893;44.316;0.092;2024-02-14T00:16:41;17.35;54.12
76785;SHT30;66893;44.316;0.092;2024-02-14T00:19:07;17.32;54.07
76785;SHT30;66893;44.316;0.092;2024-02-14T00:21:33;17.31;54.03
76785;SHT30;66893;44.316;0.092;2024-02-14T00:24:00;17.27;53.97
76785;SHT30;66893;44.316;0.092;2024-02-14T00:26:25;17.26;53.98
76785;SHT30;66893;44.316;0.092;2024-02-14T00:28:51;17.26;53.97
76785;SHT30;66893;44.316;0.092;2024-02-14T00:31:17;17.21;53.97
76785;SHT30;66893;44.316;0.092;2024-02-14T00:33:42;17.20;53.91
76785;SHT30;66893;44.316;0.092;2024-02-14T00:36:09;17.19;53.91
76785;SHT30;66893;44.316;0.092;2024-02-14T00:38:34;17.16;53.87
76785;SHT30;66893;44.316;0.092;2024-02-14T00:41:00;17.14;53.85
76785;SHT30;66893;44.316;0.092;2024-02-14T00:43:25;17.12;53.86
76785;SHT30;66893;44.316;0.092;2024-02-14T00:45:50;17.12;53.85
76785;SHT30;66893;44.316;0.092;2024-02-14T00:48:16;17.10;53.82
76785;SHT30;66893;44.316;0.092;2024-02-14T00:50:41;17.09;53.79
76785;SHT30;66893;44.316;0.092;2024-02-14T00:53:07;17.04;53.79
76785;SHT30;66893;44.316;0.092;2024-02-14T00:55:32;17.06;53.76
76785;SHT30;66893;44.316;0.092;2024-02-14T00:57:57;17.02;53.73
76785;SHT30;66893;44.316;0.092;2024-02-14T01:00:23;17.00;53.74
76785;SHT30;66893;44.316;0.092;2024-02-14T01:02:48;16.97;53.74
76785;SHT30;66893;44.316;0.092;2024-02-14T01:05:14;16.95;53.76
76785;SHT30;66893;44.316;0.092;2024-02-14T01:07:39;16.93;53.74
76785;SHT30;66893;44.316;0.092;2024-02-14T01:10:05;16.92;53.72
76785;SHT30;66893;44.316;0.092;2024-02-14T01:12:31;16.92;53.69
76785;SHT30;66893;44.316;0.092;2024-02-14T01:14:57;16.87;53.71
76785;SHT30;66893;44.316;0.092;2024-02-14T01:17:22;16.85;53.69
76785;SHT30;66893;44.316;0.092;2024-02-14T01:19:47;16.83;53.63
76785;SHT30;66893;44.316;0.092;2024-02-14T01:22:14;16.82;53.61
76785;SHT30;66893;44.316;0.092;2024-02-14T01:24:42;16.80;53.63
76785;SHT30;66893;44.316;0.092;2024-02-14T01:27:08;16.77;53.61
76785;SHT30;66893;44.316;0.092;2024-02-14T01:29:34;16.76;53.60
76785;SHT30;66893;44.316;0.092;2024-02-14T01:31:59;16.77;53.59
76785;SHT30;66893;44.316;0.092;2024-02-14T01:34:25;16.77;53.59
76785;SHT30;66893;44.316;0.092;2024-02-14T01:36:50;16.71;53.57
76785;SHT30;66893;44.316;0.092;2024-02-14T01:39:16;16.72;53.53
76785;SHT30;66893;44.316;0.092;2024-02-14T01:41:46;16.66;53.54
76785;SHT30;66893;44.316;0.092;2024-02-14T01:44:14;16.65;53.51
76785;SHT30;66893;44.316;0.092;2024-02-14T01:46:39;16.64;53.49
76785;SHT30;66893;44.316;0.092;2024-02-14T01:49:05;16.62;53.46
76785;SHT30;66893;44.316;0.092;2024-02-14T01:51:31;16.58;53.42
76785;SHT30;66893;44.316;0.092;2024-02-14T01:53:57;16.59;53.43
76785;SHT30;66893;44.316;0.092;2024-02-14T01:56:24;16.58;53.41
76785;SHT30;66893;44.316;0.092;2024-02-14T01:58:50;16.55;53.43
76785;SHT30;66893;44.316;0.092;2024-02-14T02:01:16;16.52;53.38
76785;SHT30;66893;44.316;0.092;2024-02-14T02:03:43;16.51;53.34
76785;SHT30;66893;44.316;0.092;2024-02-14T02:06:08;16.52;53.32
76785;SHT30;66893;44.316;0.092;2024-02-14T02:08:34;16.49;53.34
76785;SHT30;66893;44.316;0.092;2024-02-14T02:11:00;16.45;53.26
76785;SHT30;66893;44.316;0.092;2024-02-14T02:13:25;16.44;53.28
76785;SHT30;66893;44.316;0.092;2024-02-14T02:15:53;16.42;53.28
76785;SHT30;66893;44.316;0.092;2024-02-14T02:18:19;16.41;53.28
76785;SHT30;66893;44.316;0.092;2024-02-14T02:20:45;16.40;53.19
76785;SHT30;66893;44.316;0.092;2024-02-14T02:23:11;16.40;53.22
76785;SHT30;66893;44.316;0.092;2024-02-14T02:25:40;16.37;53.20
76785;SHT30;66893;44.316;0.092;2024-02-14T02:28:06;16.35;53.22
76785;SHT30;66893;44.316;0.092;2024-02-14T02:30:31;16.34;53.19
76785;SHT30;66893;44.316;0.092;2024-02-14T02:32:57;16.32;53.17
76785;SHT30;66893;44.316;0.092;2024-02-14T02:35:23;16.30;53.09
76785;SHT30;66893;44.316;0.092;2024-02-14T02:37:49;16.27;53.13
76785;SHT30;66893;44.316;0.092;2024-02-14T02:40:16;16.25;53.12
76785;SHT30;66893;44.316;0.092;2024-02-14T02:42:42;16.22;53.08
76785;SHT30;66893;44.316;0.092;2024-02-14T02:45:11;16.22;53.07
76785;SHT30;66893;44.316;0.092;2024-02-14T02:47:36;16.21;53.07
76785;SHT30;66893;44.316;0.092;2024-02-14T02:50:01;16.21;53.03
76785;SHT30;66893;44.316;0.092;2024-02-14T02:52:28;16.20;53.01
76785;SHT30;66893;44.316;0.092;2024-02-14T02:54:54;16.17;52.98
76785;SHT30;66893;44.316;0.092;2024-02-14T02:57:19;16.17;52.95
76785;SHT30;66893;44.316;0.092;2024-02-14T02:59:45;16.14;52.94
76785;SHT30;66893;44.316;0.092;2024-02-14T03:02:14;16.14;52.94
76785;SHT30;66893;44.316;0.092;2024-02-14T03:04:39;16.13;52.93
76785;SHT30;66893;44.316;0.092;2024-02-14T03:07:05;16.11;52.88
76785;SHT30;66893;44.316;0.092;2024-02-14T03:09:34;16.09;52.92
76785;SHT30;66893;44.316;0.092;2024-02-14T03:12:00;16.07;52.86
76785;SHT30;66893;44.316;0.092;2024-02-14T03:14:31;16.02;52.82
76785;SHT30;66893;44.316;0.092;2024-02-14T03:17:04;16.04;52.83
76785;SHT30;66893;44.316;0.092;2024-02-14T03:19:30;16.00;52.84
76785;SHT30;66893;44.316;0.092;2024-02-14T03:21:56;15.99;52.79
76785;SHT30;66893;44.316;0.092;2024-02-14T03:24:22;15.99;52.73
76785;SHT30;66893;44.316;0.092;2024-02-14T03:26:50;15.99;52.73
76785;SHT30;66893;44.316;0.092;2024-02-14T03:29:16;15.94;52.74
76785;SHT30;66893;44.316;0.092;2024-02-14T03:31:42;15.93;52.70
76785;SHT30;66893;44.316;0.092;2024-02-14T03:34:08;15.92;52.71
76785;SHT30;66893;44.316;0.092;2024-02-14T03:36:37;15.92;52.69
76785;SHT30;66893;44.316;0.092;2024-02-14T03:39:03;15.89;52.69
76785;SHT30;66893;44.316;0.092;2024-02-14T03:41:30;15.86;52.73
76785;SHT30;66893;44.316;0.092;2024-02-14T03:43:55;15.86;52.62
76785;SHT30;66893;44.316;0.092;2024-02-14T03:46:23;15.85;52.60
76785;SHT30;66893;44.316;0.092;2024-02-14T03:48:49;15.82;52.60
76785;SHT30;66893;44.316;0.092;2024-02-14T03:51:14;15.79;52.57
76785;SHT30;66893;44.316;0.092;2024-02-14T03:53:41;15.79;52.54
76785;SHT30;66893;44.316;0.092;2024-02-14T03:56:06;15.76;52.51
76785;SHT30;66893;44.316;0.092;2024-02-14T03:58:35;15.75;52.55
76785;SHT30;66893;44.316;0.092;2024-02-14T04:01:05;15.70;52.51
76785;SHT30;66893;44.316;0.092;2024-02-14T04:03:30;15.72;52.54
76785;SHT30;66893;44.316;0.092;2024-02-14T04:05:56;15.69;52.47
76785;SHT30;66893;44.316;0.092;2024-02-14T04:08:22;15.69;52.38
76785;SHT30;66893;44.316;0.092;2024-02-14T04:10:47;15.68;52.44
76785;SHT30;66893;44.316;0.092;2024-02-14T04:13:16;15.65;52.43
76785;SHT30;66893;44.316;0.092;2024-02-14T04:15:41;15.63;52.40
76785;SHT30;66893;44.316;0.092;2024-02-14T04:18:08;15.62;52.38
76785;SHT30;66893;44.316;0.092;2024-02-14T04:20:34;15.62;52.35
76785;SHT30;66893;44.316;0.092;2024-02-14T04:23:00;15.59;52.35
76785;SHT30;66893;44.316;0.092;2024-02-14T04:25:25;15.59;52.33
76785;SHT30;66893;44.316;0.092;2024-02-14T04:27:51;15.55;52.30
76785;SHT30;66893;44.316;0.092;2024-02-14T04:30:16;15.52;52.24
76785;SHT30;66893;44.316;0.092;2024-02-14T04:32:42;15.54;52.34
76785;SHT30;66893;44.316;0.092;2024-02-14T04:35:08;15.51;52.32
76785;SHT30;66893;44.316;0.092;2024-02-14T04:37:34;15.48;52.22
76785;SHT30;66893;44.316;0.092;2024-02-14T04:39:59;15.47;52.17
76785;SHT30;66893;44.316;0.092;2024-02-14T04:42:24;15.49;52.24
76785;SHT30;66893;44.316;0.092;2024-02-14T04:44:50;15.44;52.20
76785;SHT30;66893;44.316;0.092;2024-02-14T04:47:15;15.45;52.18
76785;SHT30;66893;44.316;0.092;2024-02-14T04:49:41;15.42;52.18
76785;SHT30;66893;44.316;0.092;2024-02-14T04:52:06;15.38;52.19
76785;SHT30;66893;44.316;0.092;2024-02-14T04:54:33;15.38;52.16
76785;SHT30;66893;44.316;0.092;2024-02-14T04:56:58;15.38;52.13
76785;SHT30;66893;44.316;0.092;2024-02-14T04:59:24;15.37;52.09
76785;SHT30;66893;44.316;0.092;2024-02-14T05:01:49;15.35;52.10
76785;SHT30;66893;44.316;0.092;2024-02-14T05:04:15;15.35;52.07
76785;SHT30;66893;44.316;0.092;2024-02-14T05:06:42;15.31;52.07
76785;SHT30;66893;44.316;0.092;2024-02-14T05:09:07;15.32;52.07
76785;SHT30;66893;44.316;0.092;2024-02-14T05:11:36;15.30;52.07
76785;SHT30;66893;44.316;0.092;2024-02-14T05:14:01;15.30;52.04
76785;SHT30;66893;44.316;0.092;2024-02-14T05:16:27;15.27;51.99
76785;SHT30;66893;44.316;0.092;2024-02-14T05:18:53;15.26;51.99
76785;SHT30;66893;44.316;0.092;2024-02-14T05:21:21;15.24;51.98
76785;SHT30;66893;44.316;0.092;2024-02-14T05:23:47;15.23;51.98
76785;SHT30;66893;44.316;0.092;2024-02-14T05:26:12;15.21;51.94
76785;SHT30;66893;44.316;0.092;2024-02-14T05:28:38;15.20;51.89
76785;SHT30;66893;44.316;0.092;2024-02-14T05:31:03;15.20;51.85
76785;SHT30;66893;44.316;0.092;2024-02-14T05:33:28;15.14;51.93
76785;SHT30;66893;44.316;0.092;2024-02-14T05:35:54;15.14;51.81
76785;SHT30;66893;44.316;0.092;2024-02-14T05:38:19;15.13;51.85
76785;SHT30;66893;44.316;0.092;2024-02-14T05:40:46;15.11;51.87
76785;SHT30;66893;44.316;0.092;2024-02-14T05:43:11;15.10;51.76
76785;SHT30;66893;44.316;0.092;2024-02-14T05:45:37;15.08;51.78
76785;SHT30;66893;44.316;0.092;2024-02-14T05:48:03;15.06;51.75
76785;SHT30;66893;44.316;0.092;2024-02-14T05:50:30;15.07;51.75
76785;SHT30;66893;44.316;0.092;2024-02-14T05:52:56;15.03;51.72
76785;SHT30;66893;44.316;0.092;2024-02-14T05:55:24;15.01;51.74
76785;SHT30;66893;44.316;0.092;2024-02-14T05:57:51;15.03;51.73
76785;SHT30;66893;44.316;0.092;2024-02-14T06:00:20;15.00;51.69
76785;SHT30;66893;44.316;0.092;2024-02-14T06:02:49;15.00;51.72
76785;SHT30;66893;44.316;0.092;2024-02-14T06:05:15;14.99;51.73
76785;SHT30;66893;44.316;0.092;2024-02-14T06:07:41;14.96;51.71
76785;SHT30;66893;44.316;0.092;2024-02-14T06:10:08;14.94;51.69
76785;SHT30;66893;44.316;0.092;2024-02-14T06:12:33;14.93;51.70
76785;SHT30;66893;44.316;0.092;2024-02-14T06:15:00;14.93;51.69
76785;SHT30;66893;44.316;0.092;2024-02-14T06:17:25;14.92;51.67
76785;SHT30;66893;44.316;0.092;2024-02-14T06:19:54;14.87;51.65
76785;SHT30;66893;44.316;0.092;2024-02-14T06:22:19;14.87;51.66
76785;SHT30;66893;44.316;0.092;2024-02-14T06:24:46;14.87;51.53
76785;SHT30;66893;44.316;0.092;2024-02-14T06:27:13;14.84;51.67
76785;SHT30;66893;44.316;0.092;2024-02-14T06:29:42;14.87;51.62
76785;SHT30;66893;44.316;0.092;2024-02-14T06:32:07;14.84;51.52
76785;SHT30;66893;44.316;0.092;2024-02-14T06:34:33;14.83;51.57
76785;SHT30;66893;44.316;0.092;2024-02-14T06:36:58;14.82;51.94
76785;SHT30;66893;44.316;0.092;2024-02-14T06:39:23;14.84;52.31
76785;SHT30;66893;44.316;0.092;2024-02-14T06:41:49;14.86;52.27
76785;SHT30;66893;44.316;0.092;2024-02-14T06:44:14;14.83;52.29
76785;SHT30;66893;44.316;0.092;2024-02-14T06:46:40;14.84;52.30
76785;SHT30;66893;44.316;0.092;2024-02-14T06:49:07;14.80;52.26
76785;SHT30;66893;44.316;0.092;2024-02-14T06:51:32;14.80;52.27
76785;SHT30;66893;44.316;0.092;2024-02-14T06:53:58;14.79;52.22
76785;SHT30;66893;44.316;0.092;2024-02-14T06:56:24;14.73;52.23
76785;SHT30;66893;44.316;0.092;2024-02-14T06:58:49;14.73;52.14
76785;SHT30;66893;44.316;0.092;2024-02-14T07:01:19;14.73;52.18
76785;SHT30;66893;44.316;0.092;2024-02-14T07:03:47;14.71;52.18
76785;SHT30;66893;44.316;0.092;2024-02-14T07:06:13;14.71;52.14
76785;SHT30;66893;44.316;0.092;2024-02-14T07:08:41;14.66;52.14
76785;SHT30;66893;44.316;0.092;2024-02-14T07:11:06;14.66;52.15
76785;SHT30;66893;44.316;0.092;2024-02-14T07:13:31;14.68;52.05
76785;SHT30;66893;44.316;0.092;2024-02-14T07:15:57;14.64;51.94
76785;SHT30;66893;44.316;0.092;2024-02-14T07:18:22;14.61;51.99
76785;SHT30;66893;44.316;0.092;2024-02-14T07:20:47;14.59;51.98
76785;SHT30;66893;44.316;0.092;2024-02-14T07:23:13;14.58;51.89
76785;SHT30;66893;44.316;0.092;2024-02-14T07:25:39;14.58;51.87
76785;SHT30;66893;44.316;0.092;2024-02-14T07:28:04;14.54;51.96
76785;SHT30;66893;44.316;0.092;2024-02-14T07:30:30;14.48;51.73
76785;SHT30;66893;44.316;0.092;2024-02-14T07:32:55;14.44;51.77
76785;SHT30;66893;44.316;0.092;2024-02-14T07:35:21;14.41;51.79
76785;SHT30;66893;44.316;0.092;2024-02-14T07:37:47;14.41;51.79
76785;SHT30;66893;44.316;0.092;2024-02-14T07:40:13;14.41;51.73
76785;SHT30;66893;44.316;0.092;2024-02-14T07:42:39;14.39;51.80
76785;SHT30;66893;44.316;0.092;2024-02-14T07:45:05;14.39;51.84
76785;SHT30;66893;44.316;0.092;2024-02-14T07:47:30;14.39;51.79
76785;SHT30;66893;44.316;0.092;2024-02-14T07:49:56;14.41;51.85
76785;SHT30;66893;44.316;0.092;2024-02-14T07:52:22;14.41;52.03
76785;SHT30;66893;44.316;0.092;2024-02-14T07:54:52;14.46;52.03
76785;SHT30;66893;44.316;0.092;2024-02-14T07:57:18;14.45;52.02
76785;SHT30;66893;44.316;0.092;2024-02-14T07:59:43;14.44;52.08
76785;SHT30;66893;44.316;0.092;2024-02-14T08:02:09;14.46;52.05
76785;SHT30;66893;44.316;0.092;2024-02-14T08:04:34;14.49;52.09
76785;SHT30;66893;44.316;0.092;2024-02-14T08:07:00;14.46;52.13
76785;SHT30;66893;44.316;0.092;2024-02-14T08:09:25;14.46;52.16
76785;SHT30;66893;44.316;0.092;2024-02-14T08:11:50;14.48;52.18
76785;SHT30;66893;44.316;0.092;2024-02-14T08:14:18;14.52;52.20
76785;SHT30;66893;44.316;0.092;2024-02-14T08:16:43;14.54;52.27
76785;SHT30;66893;44.316;0.092;2024-02-14T08:19:09;14.56;52.27
76785;SHT30;66893;44.316;0.092;2024-02-14T08:21:34;14.56;52.34
76785;SHT30;66893;44.316;0.092;2024-02-14T08:24:01;14.56;52.33
76785;SHT30;66893;44.316;0.092;2024-02-14T08:26:26;14.58;52.39
76785;SHT30;66893;44.316;0.092;2024-02-14T08:28:52;14.62;52.38
76785;SHT30;66893;44.316;0.092;2024-02-14T08:31:17;14.65;52.42
76785;SHT30;66893;44.316;0.092;2024-02-14T08:33:42;14.65;52.47
76785;SHT30;66893;44.316;0.092;2024-02-14T08:36:08;14.68;52.51
76785;SHT30;66893;44.316;0.092;2024-02-14T08:38:34;14.72;52.53
76785;SHT30;66893;44.316;0.092;2024-02-14T08:41:01;14.72;52.56
76785;SHT30;66893;44.316;0.092;2024-02-14T08:43:26;14.72;52.63
76785;SHT30;66893;44.316;0.092;2024-02-14T08:45:54;14.76;52.66
76785;SHT30;66893;44.316;0.092;2024-02-14T08:48:19;14.79;52.70
76785;SHT30;66893;44.316;0.092;2024-02-14T08:50:45;14.82;52.68
76785;SHT30;66893;44.316;0.092;2024-02-14T08:53:12;14.84;52.81
76785;SHT30;66893;44.316;0.092;2024-02-14T08:55:39;14.84;52.84
76785;SHT30;66893;44.316;0.092;2024-02-14T08:58:04;14.89;52.84
76785;SHT30;66893;44.316;0.092;2024-02-14T09:00:30;14.92;52.93
76785;SHT30;66893;44.316;0.092;2024-02-14T09:02:56;14.97;52.95
76785;SHT30;66893;44.316;0.092;2024-02-14T09:05:25;14.96;53.01
76785;SHT30;66893;44.316;0.092;2024-02-14T09:07:50;15.00;53.02
76785;SHT30;66893;44.316;0.092;2024-02-14T09:10:16;15.04;53.09
76785;SHT30;66893;44.316;0.092;2024-02-14T09:12:41;15.07;53.11
76785;SHT30;66893;44.316;0.092;2024-02-14T09:15:07;15.10;53.20
76785;SHT30;66893;44.316;0.092;2024-02-14T09:17:33;15.11;53.28
76785;SHT30;66893;44.316;0.092;2024-02-14T09:19:59;15.13;53.32
76785;SHT30;66893;44.316;0.092;2024-02-14T09:22:24;15.17;53.43
76785;SHT30;66893;44.316;0.092;2024-02-14T09:24:50;15.19;53.48
76785;SHT30;66893;44.316;0.092;2024-02-14T09:27:16;15.20;53.53
76785;SHT30;66893;44.316;0.092;2024-02-14T09:29:42;15.24;53.57
76785;SHT30;66893;44.316;0.092;2024-02-14T09:32:07;15.24;53.73
76785;SHT30;66893;44.316;0.092;2024-02-14T09:34:34;15.30;53.80
76785;SHT30;66893;44.316;0.092;2024-02-14T09:36:59;15.32;53.85
76785;SHT30;66893;44.316;0.092;2024-02-14T09:39:25;15.37;53.94
76785;SHT30;66893;44.316;0.092;2024-02-14T09:41:58;15.39;54.03
76785;SHT30;66893;44.316;0.092;2024-02-14T09:44:27;15.39;54.03
76785;SHT30;66893;44.316;0.092;2024-02-14T09:46:55;15.45;54.11
76785;SHT30;66893;44.316;0.092;2024-02-14T09:49:21;15.48;54.13
76785;SHT30;66893;44.316;0.092;2024-02-14T09:51:48;15.49;54.19
76785;SHT30;66893;44.316;0.092;2024-02-14T09:54:17;15.55;54.23
76785;SHT30;66893;44.316;0.092;2024-02-14T09:56:48;15.56;54.26
76785;SHT30;66893;44.316;0.092;2024-02-14T09:59:16;15.59;54.34
76785;SHT30;66893;44.316;0.092;2024-02-14T10:01:41;15.65;54.35
76785;SHT30;66893;44.316;0.092;2024-02-14T10:04:08;15.70;54.36
76785;SHT30;66893;44.316;0.092;2024-02-14T10:06:33;15.72;54.52
76785;SHT30;66893;44.316;0.092;2024-02-14T10:08:59;15.75;54.56
76785;SHT30;66893;44.316;0.092;2024-02-14T10:11:24;15.82;54.49
76785;SHT30;66893;44.316;0.092;2024-02-14T10:13:52;15.86;54.57
76785;SHT30;66893;44.316;0.092;2024-02-14T10:16:19;15.87;54.63
76785;SHT30;66893;44.316;0.092;2024-02-14T10:18:45;15.90;54.52
76785;SHT30;66893;44.316;0.092;2024-02-14T10:21:17;15.94;54.56
76785;SHT30;66893;44.316;0.092;2024-02-14T10:23:44;16.00;54.53
76785;SHT30;66893;44.316;0.092;2024-02-14T10:26:15;16.04;54.51
76785;SHT30;66893;44.316;0.092;2024-02-14T10:28:42;16.07;54.54
76785;SHT30;66893;44.316;0.092;2024-02-14T10:31:07;16.11;54.60
76785;SHT30;66893;44.316;0.092;2024-02-14T10:33:35;16.17;54.58
76785;SHT30;66893;44.316;0.092;2024-02-14T10:36:01;16.20;54.57
76785;SHT30;66893;44.316;0.092;2024-02-14T10:38:31;16.24;54.53
76785;SHT30;66893;44.316;0.092;2024-02-14T10:40:59;16.30;54.46
76785;SHT30;66893;44.316;0.092;2024-02-14T10:43:25;16.34;54.49
76785;SHT30;66893;44.316;0.092;2024-02-14T10:45:53;16.42;54.52
76785;SHT30;66893;44.316;0.092;2024-02-14T10:48:22;16.47;54.43
76785;SHT30;66893;44.316;0.092;2024-02-14T10:50:53;16.54;54.46
76785;SHT30;66893;44.316;0.092;2024-02-14T10:53:19;16.61;54.44
76785;SHT30;66893;44.316;0.092;2024-02-14T10:55:48;16.65;54.40
76785;SHT30;66893;44.316;0.092;2024-02-14T10:58:14;16.72;54.37
76785;SHT30;66893;44.316;0.092;2024-02-14T11:00:42;16.82;54.36
76785;SHT30;66893;44.316;0.092;2024-02-14T11:03:09;16.89;54.38
76785;SHT30;66893;44.316;0.092;2024-02-14T11:05:45;16.93;54.30
76785;SHT30;66893;44.316;0.092;2024-02-14T11:08:15;17.02;54.25
76785;SHT30;66893;44.316;0.092;2024-02-14T11:10:40;17.09;54.25
76785;SHT30;66893;44.316;0.092;2024-02-14T11:13:11;17.17;54.21
76785;SHT30;66893;44.316;0.092;2024-02-14T11:15:39;17.26;54.19
76785;SHT30;66893;44.316;0.092;2024-02-14T11:18:06;17.28;54.16
76785;SHT30;66893;44.316;0.092;2024-02-14T11:20:35;17.38;54.19
76785;SHT30;66893;44.316;0.092;2024-02-14T11:23:03;17.47;54.14
76785;SHT30;66893;44.316;0.092;2024-02-14T11:25:30;17.57;54.09
76785;SHT30;66893;44.316;0.092;2024-02-14T11:27:57;17.65;54.09
76785;SHT30;66893;44.316;0.092;2024-02-14T11:30:28;17.76;54.16
76785;SHT30;66893;44.316;0.092;2024-02-14T11:32:54;17.81;53.99
76785;SHT30;66893;44.316;0.092;2024-02-14T11:35:19;17.85;53.68
76785;SHT30;66893;44.316;0.092;2024-02-14T11:37:51;17.89;53.53
76785;SHT30;66893;44.316;0.092;2024-02-14T11:40:19;17.92;53.45
76785;SHT30;66893;44.316;0.092;2024-02-14T11:42:46;17.95;53.44
76785;SHT30;66893;44.316;0.092;2024-02-14T11:45:13;17.99;53.35
76785;SHT30;66893;44.316;0.092;2024-02-14T11:47:38;17.99;53.28
76785;SHT30;66893;44.316;0.092;2024-02-14T11:50:04;18.06;53.22
76785;SHT30;66893;44.316;0.092;2024-02-14T11:52:30;18.10;53.18
76785;SHT30;66893;44.316;0.092;2024-02-14T11:54:55;18.16;53.18
76785;SHT30;66893;44.316;0.092;2024-02-14T11:57:22;18.24;53.08
76785;SHT30;66893;44.316;0.092;2024-02-14T11:59:52;18.29;53.00
76785;SHT30;66893;44.316;0.092;2024-02-14T12:02:19;18.36;52.95
76785;SHT30;66893;44.316;0.092;2024-02-14T12:04:46;18.38;52.92
76785;SHT30;66893;44.316;0.092;2024-02-14T12:07:12;18.47;52.85
76785;SHT30;66893;44.316;0.092;2024-02-14T12:09:38;18.51;52.78
76785;SHT30;66893;44.316;0.092;2024-02-14T12:12:04;18.58;52.73
76785;SHT30;66893;44.316;0.092;2024-02-14T12:14:30;18.65;52.66
76785;SHT30;66893;44.316;0.092;2024-02-14T12:17:00;18.71;52.59
76785;SHT30;66893;44.316;0.092;2024-02-14T12:19:29;18.82;52.58
76785;SHT30;66893;44.316;0.092;2024-02-14T12:21:54;18.89;52.52
76785;SHT30;66893;44.316;0.092;2024-02-14T12:24:21;18.98;52.42
76785;SHT30;66893;44.316;0.092;2024-02-14T12:26:48;19.09;52.38
76785;SHT30;66893;44.316;0.092;2024-02-14T12:29:14;19.14;52.38
76785;SHT30;66893;44.316;0.092;2024-02-14T12:31:39;19.24;52.26
76785;SHT30;66893;44.316;0.092;2024-02-14T12:34:05;19.34;52.28
76785;SHT30;66893;44.316;0.092;2024-02-14T12:36:32;19.46;52.21
76785;SHT30;66893;44.316;0.092;2024-02-14T12:38:58;19.54;52.09
76785;SHT30;66893;44.316;0.092;2024-02-14T12:41:24;19.64;52.13
76785;SHT30;66893;44.316;0.092;2024-02-14T12:43:52;19.72;52.05
76785;SHT30;66893;44.316;0.092;2024-02-14T12:46:17;19.83;51.95
76785;SHT30;66893;44.316;0.092;2024-02-14T12:48:43;19.89;51.85
76785;SHT30;66893;44.316;0.092;2024-02-14T12:51:09;20.00;51.79
76785;SHT30;66893;44.316;0.092;2024-02-14T12:53:35;20.09;51.68
76785;SHT30;66893;44.316;0.092;2024-02-14T12:56:00;20.17;51.61
76785;SHT30;66893;44.316;0.092;2024-02-14T12:58:26;20.26;51.56
76785;SHT30;66893;44.316;0.092;2024-02-14T13:00:52;20.36;51.47
76785;SHT30;66893;44.316;0.092;2024-02-14T13:03:19;20.43;51.41
76785;SHT30;66893;44.316;0.092;2024-02-14T13:05:44;20.53;51.27
76785;SHT30;66893;44.316;0.092;2024-02-14T13:08:10;20.58;51.20
76785;SHT30;66893;44.316;0.092;2024-02-14T13:10:38;20.67;51.15
76785;SHT30;66893;44.316;0.092;2024-02-14T13:13:04;20.75;51.06
76785;SHT30;66893;44.316;0.092;2024-02-14T13:15:30;20.82;50.99
76785;SHT30;66893;44.316;0.092;2024-02-14T13:17:55;20.92;51.06
76785;SHT30;66893;44.316;0.092;2024-02-14T13:20:23;21.02;50.93
76785;SHT30;66893;44.316;0.092;2024-02-14T13:22:49;21.09;50.81
76785;SHT30;66893;44.316;0.092;2024-02-14T13:25:14;21.15;50.73
76785;SHT30;66893;44.316;0.092;2024-02-14T13:27:40;21.22;50.62
76785;SHT30;66893;44.316;0.092;2024-02-14T13:30:06;21.30;50.58
76785;SHT30;66893;44.316;0.092;2024-02-14T13:32:32;21.37;50.54
76785;SHT30;66893;44.316;0.092;2024-02-14T13:34:58;21.44;50.42
76785;SHT30;66893;44.316;0.092;2024-02-14T13:37:24;21.51;50.28
76785;SHT30;66893;44.316;0.092;2024-02-14T13:39:50;21.58;50.28
76785;SHT30;66893;44.316;0.092;2024-02-14T13:42:15;21.65;50.21
76785;SHT30;66893;44.316;0.092;2024-02-14T13:44:41;21.71;50.16
76785;SHT30;66893;44.316;0.092;2024-02-14T13:47:06;21.80;50.10
76785;SHT30;66893;44.316;0.092;2024-02-14T13:49:32;21.87;49.96
76785;SHT30;66893;44.316;0.092;2024-02-14T13:51:57;21.95;49.98
76785;SHT30;66893;44.316;0.092;2024-02-14T13:54:23;22.04;49.87
76785;SHT30;66893;44.316;0.092;2024-02-14T13:56:49;22.12;49.85
76785;SHT30;66893;44.316;0.092;2024-02-14T13:59:15;22.20;49.65
76785;SHT30;66893;44.316;0.092;2024-02-14T14:01:41;22.29;49.69
76785;SHT30;66893;44.316;0.092;2024-02-14T14:04:07;22.46;49.68
76785;SHT30;66893;44.316;0.092;2024-02-14T14:06:33;22.92;49.55
76785;SHT30;66893;44.316;0.092;2024-02-14T14:08:59;24.07;48.09
76785;SHT30;66893;44.316;0.092;2024-02-14T14:11:25;25.26;46.06
76785;SHT30;66893;44.316;0.092;2024-02-14T14:13:50;26.16;44.68
76785;SHT30;66893;44.316;0.092;2024-02-14T14:16:16;26.90;43.59
76785;SHT30;66893;44.316;0.092;2024-02-14T14:18:42;26.91;43.47
76785;SHT30;66893;44.316;0.092;2024-02-14T14:21:08;26.53;43.98
76785;SHT30;66893;44.316;0.092;2024-02-14T14:23:33;26.25;44.60
76785;SHT30;66893;44.316;0.092;2024-02-14T14:25:59;26.32;44.52
76785;SHT30;66893;44.316;0.092;2024-02-14T14:28:25;26.53;44.03
76785;SHT30;66893;44.316;0.092;2024-02-14T14:30:51;26.63;43.71
76785;SHT30;66893;44.316;0.092;2024-02-14T14:33:19;26.86;43.23
76785;SHT30;66893;44.316;0.092;2024-02-14T14:35:44;26.56;43.17
76785;SHT30;66893;44.316;0.092;2024-02-14T14:38:10;26.10;43.54
76785;SHT30;66893;44.316;0.092;2024-02-14T14:40:36;25.62;43.93
76785;SHT30;66893;44.316;0.092;2024-02-14T14:43:05;25.12;44.30
76785;SHT30;66893;44.316;0.092;2024-02-14T14:45:30;24.77;44.68
76785;SHT30;66893;44.316;0.092;2024-02-14T14:47:56;24.46;44.98
76785;SHT30;66893;44.316;0.092;2024-02-14T14:50:21;24.18;45.22
76785;SHT30;66893;44.316;0.092;2024-02-14T14:52:47;23.93;45.47
76785;SHT30;66893;44.316;0.092;2024-02-14T14:55:12;23.73;45.69
76785;SHT30;66893;44.316;0.092;2024-02-14T14:57:38;23.54;45.90
76785;SHT30;66893;44.316;0.092;2024-02-14T15:00:09;23.39;46.10
76785;SHT30;66893;44.316;0.092;2024-02-14T15:02:38;23.25;46.28
76785;SHT30;66893;44.316;0.092;2024-02-14T15:05:05;23.11;46.44
76785;SHT30;66893;44.316;0.092;2024-02-14T15:07:31;23.01;46.51
76785;SHT30;66893;44.316;0.092;2024-02-14T15:09:56;22.90;46.66
76785;SHT30;66893;44.316;0.092;2024-02-14T15:12:22;22.80;46.79
76785;SHT30;66893;44.316;0.092;2024-02-14T15:14:52;22.71;46.89
76785;SHT30;66893;44.316;0.092;2024-02-14T15:17:19;22.68;47.13
76785;SHT30;66893;44.316;0.092;2024-02-14T15:19:45;22.72;47.16
76785;SHT30;66893;44.316;0.092;2024-02-14T15:22:10;22.71;47.24
76785;SHT30;66893;44.316;0.092;2024-02-14T15:24:36;22.74;47.27